Airfield :
LOGIN :

Register | Disclaimer

   EN    FR    IT 

 










Legend :    VFR   Marginal VFR   IFR   Intensive IFR   Very Intensive IFR
Visi :
Ceiling :
>= 8 km
>= 3000ft
5 to 8 km
1000 to 3000 ft
1500m to 5 km
500 to 1000 ft
800 to 1500m
200 to 500 ft
< 800m
< 200 ft
Symbols :   Thunderstorms  Fog  Heavy snow  Heavy precipitations  Wind > 20 kt
SIGMETs :     Misc.  Thunderstorms  Icing  Turbulence  Mountain Waves  Volcanic Ashes






- Airport Elevation : 25 ft
- IATA code : QCY


EGXC - RAF Coningsby

CURRENT METAR :
  • 240150Z 19008KT CAVOK 06/04 Q1006 RMK BLU

EXPIRED METARs :
  • 240050Z AUTO 19006KT 9999 NCD 05/04 Q1007
  • 232350Z AUTO 19006KT 9999 FEW190/// 06/04 Q1007

TAF TAF EGXC
Valid from the 24 at 03:00 until the 24 at 21:00 UTC


240146Z 2403/2421 19010KT 9999 FEW030
TEMPO 2406/2408 18015G25KT
BECMG 2408/2411 18020G30KT BKN020
PROB40
TEMPO 2411/2417 7000 RA SCT012
PROB30
TEMPO 2415/2417 3500 +SHRA
BECMG 2417/2419 19012KT BKN040
PROB40
TEMPO 2419/2421 4000 RA BKN012



MET'MAP, your aeronautical weather chart ! - Copyright ORBIFLY December 2007 - Disclaimer

ORBIFLY MET'MAP TEAM :

Programming & Development : Alexandra Zaïnal
Concept & original design : Baudouin d'Aumeries
Assistance for programming : Marc-Olivier Méhu
Technical & hardware support : Manuel Goepfert

Contact : metmap@orbifly.com




SOURCES & CREDITS :

   NOAA